createdAt,value
2022-09-28T00:00:42.643Z,97.39
2022-09-28T00:03:09.600Z,97.56
2022-09-28T00:05:36.337Z,97.48
2022-09-28T00:08:03.139Z,97.30
2022-09-28T00:10:29.959Z,97.21
2022-09-28T00:12:56.745Z,97.16
2022-09-28T00:15:24.783Z,97.08
2022-09-28T00:17:51.520Z,96.97
2022-09-28T00:20:19.442Z,96.77
2022-09-28T00:22:46.293Z,96.63
2022-09-28T00:25:13.067Z,96.70
2022-09-28T00:27:40.287Z,96.86
2022-09-28T00:30:07.931Z,97.39
2022-09-28T00:32:34.753Z,98.04
2022-09-28T00:35:01.538Z,97.80
2022-09-28T00:37:28.254Z,97.71
2022-09-28T00:39:54.993Z,97.30
2022-09-28T00:42:24.891Z,97.13
2022-09-28T00:44:56.210Z,97.03
2022-09-28T00:47:41.927Z,96.90
2022-09-28T00:50:13.059Z,96.81
2022-09-28T00:52:45.986Z,96.80
2022-09-28T00:55:21.724Z,96.87
2022-09-28T00:57:53.738Z,96.66
2022-09-28T01:00:20.771Z,96.51
2022-09-28T01:02:48.382Z,96.51
2022-09-28T01:05:18.365Z,96.28
2022-09-28T01:07:46.910Z,96.39
2022-09-28T01:10:14.316Z,96.30
2022-09-28T01:12:41.167Z,96.23
2022-09-28T01:15:08.478Z,95.99
2022-09-28T01:17:58.393Z,96.08
2022-09-28T01:20:39.937Z,95.87
2022-09-28T01:23:37.572Z,96.21
2022-09-28T01:26:44.015Z,96.70
2022-09-28T01:29:17.042Z,96.87
2022-09-28T01:31:49.804Z,96.83
2022-09-28T01:34:20.971Z,96.64
2022-09-28T01:36:50.735Z,96.82
2022-09-28T01:39:27.788Z,96.92
2022-09-28T01:42:01.201Z,96.83
2022-09-28T01:44:31.435Z,96.68
2022-09-28T01:47:04.266Z,96.62
2022-09-28T01:49:42.839Z,96.59
2022-09-28T01:52:27.973Z,96.49
2022-09-28T01:55:01.482Z,96.55
2022-09-28T01:57:39.440Z,96.34
2022-09-28T02:00:08.637Z,96.28
2022-09-28T02:03:06.852Z,96.47
2022-09-28T02:05:49.698Z,96.08
2022-09-28T02:08:29.029Z,96.16
2022-09-28T02:11:06.054Z,97.03
2022-09-28T02:13:53.776Z,97.40
2022-09-28T02:16:30.030Z,97.50
2022-09-28T02:18:57.462Z,97.23
2022-09-28T02:21:29.752Z,97.25
2022-09-28T02:24:01.540Z,96.73
2022-09-28T02:26:35.586Z,96.75
2022-09-28T02:29:02.414Z,96.52
2022-09-28T02:31:29.255Z,96.39
2022-09-28T02:33:57.574Z,96.20
2022-09-28T02:36:26.715Z,96.43
2022-09-28T02:38:53.826Z,96.19
2022-09-28T02:41:26.369Z,96.32
2022-09-28T02:44:16.408Z,96.21
2022-09-28T02:46:55.761Z,95.93
2022-09-28T02:50:09.638Z,96.04
2022-09-28T02:53:03.839Z,95.80
2022-09-28T02:55:40.516Z,95.74
2022-09-28T02:58:25.693Z,95.81
2022-09-28T03:01:02.637Z,95.71
2022-09-28T03:03:50.621Z,95.70
2022-09-28T03:06:30.864Z,95.58
2022-09-28T03:09:04.755Z,95.75
2022-09-28T03:11:39.737Z,95.82
2022-09-28T03:14:07.000Z,95.30
2022-09-28T03:16:46.369Z,95.58
2022-09-28T03:19:14.408Z,95.50
2022-09-28T03:21:41.404Z,95.54
2022-09-28T03:24:10.615Z,95.81
2022-09-28T03:26:38.980Z,95.41
2022-09-28T03:29:06.646Z,95.49
2022-09-28T03:31:35.217Z,95.30
2022-09-28T03:34:02.434Z,95.26
2022-09-28T03:36:29.363Z,95.25
2022-09-28T03:38:56.429Z,95.15
2022-09-28T03:41:25.030Z,95.24
2022-09-28T03:43:51.789Z,95.64
2022-09-28T03:46:18.809Z,95.68
2022-09-28T03:48:49.725Z,95.28
2022-09-28T03:51:16.485Z,95.52
2022-09-28T03:53:43.375Z,95.40
2022-09-28T03:56:13.842Z,95.38
2022-09-28T03:58:42.327Z,95.40
2022-09-28T04:01:16.935Z,95.73
2022-09-28T04:03:46.235Z,95.45
2022-09-28T04:06:14.029Z,95.76
2022-09-28T04:08:40.957Z,95.74
2022-09-28T04:11:08.577Z,95.66
2022-09-28T04:13:35.494Z,95.46
2022-09-28T04:16:02.460Z,95.70
2022-09-28T04:18:33.435Z,95.77
2022-09-28T04:21:23.357Z,95.84
2022-09-28T04:23:55.856Z,95.96
2022-09-28T04:26:25.106Z,95.49
2022-09-28T04:29:10.650Z,95.77
2022-09-28T04:31:53.509Z,95.64
2022-09-28T04:34:23.623Z,95.42
2022-09-28T04:36:51.186Z,95.62
2022-09-28T04:39:21.603Z,95.44
2022-09-28T04:41:51.555Z,95.12
2022-09-28T04:44:18.838Z,95.45
2022-09-28T04:46:47.266Z,95.83
2022-09-28T04:49:29.529Z,96.05
2022-09-28T04:52:06.938Z,96.15
2022-09-28T04:54:34.788Z,95.55
2022-09-28T04:57:03.380Z,95.84
2022-09-28T04:59:30.300Z,95.64
2022-09-28T05:01:57.351Z,95.34
2022-09-28T05:04:39.386Z,95.77
2022-09-28T05:07:20.233Z,95.78
2022-09-28T05:09:46.991Z,95.95
2022-09-28T05:12:15.086Z,96.03
2022-09-28T05:14:42.103Z,96.38
2022-09-28T05:17:10.294Z,96.83
2022-09-28T05:19:57.432Z,96.48
2022-09-28T05:22:24.264Z,96.16
2022-09-28T05:24:51.809Z,96.51
2022-09-28T05:27:18.551Z,95.71
2022-09-28T05:29:52.437Z,94.53
2022-09-28T05:32:44.375Z,93.41
2022-09-28T05:35:18.839Z,92.36
2022-09-28T05:37:47.531Z,92.19
2022-09-28T05:40:14.791Z,92.35
2022-09-28T05:42:42.248Z,89.65
2022-09-28T05:45:10.209Z,91.33
2022-09-28T05:47:43.751Z,90.66
2022-09-28T05:50:11.991Z,90.66
2022-09-28T05:52:39.615Z,90.93
2022-09-28T05:55:08.027Z,91.43
2022-09-28T05:57:35.045Z,91.56
2022-09-28T06:00:06.024Z,90.63
2022-09-28T06:02:39.303Z,90.06
2022-09-28T06:05:08.695Z,88.74
2022-09-28T06:07:35.638Z,86.52
2022-09-28T06:10:02.906Z,85.41
2022-09-28T06:12:39.860Z,83.90
2022-09-28T06:15:12.338Z,83.57
2022-09-28T06:17:39.812Z,82.87
2022-09-28T06:20:26.900Z,81.75
2022-09-28T06:23:07.901Z,81.13
2022-09-28T06:25:34.761Z,82.30
2022-09-28T06:28:05.083Z,81.61
2022-09-28T06:30:34.688Z,82.19
2022-09-28T06:33:02.578Z,81.15
2022-09-28T06:35:30.979Z,80.33
2022-09-28T06:37:59.952Z,79.35
2022-09-28T06:40:28.086Z,78.35
2022-09-28T06:43:00.383Z,76.53
2022-09-28T06:45:52.326Z,75.56
2022-09-28T06:48:42.941Z,75.29
2022-09-28T06:51:12.670Z,74.19
2022-09-28T06:53:53.963Z,75.04
2022-09-28T06:56:41.017Z,75.70
2022-09-28T06:59:07.775Z,76.01
2022-09-28T07:01:36.291Z,76.63
2022-09-28T07:04:42.038Z,76.83
2022-09-28T07:07:31.875Z,76.71
2022-09-28T07:10:11.423Z,76.95
2022-09-28T07:12:44.376Z,76.79
2022-09-28T07:15:32.539Z,77.07
2022-09-28T07:18:03.558Z,77.44
2022-09-28T07:20:38.720Z,77.35
2022-09-28T07:23:19.228Z,77.30
2022-09-28T07:26:25.691Z,76.59
2022-09-28T07:29:18.922Z,76.41
2022-09-28T07:32:17.656Z,77.43
2022-09-28T07:34:58.919Z,76.21
2022-09-28T07:38:00.588Z,76.56
2022-09-28T07:40:48.450Z,74.65
2022-09-28T07:43:20.778Z,73.80
2022-09-28T07:45:52.600Z,73.59
2022-09-28T07:48:20.144Z,73.65
2022-09-28T07:51:25.331Z,74.07
2022-09-28T07:54:10.775Z,74.24
2022-09-28T07:56:44.307Z,74.64
2022-09-28T07:59:26.982Z,74.60
2022-09-28T08:02:20.571Z,74.62
2022-09-28T08:04:48.621Z,74.78
2022-09-28T08:07:20.480Z,75.49
2022-09-28T08:09:55.376Z,75.38
2022-09-28T08:12:27.723Z,75.70
2022-09-28T08:15:13.475Z,76.39
2022-09-28T08:17:59.089Z,75.74
2022-09-28T08:20:51.325Z,75.40
2022-09-28T08:23:19.810Z,72.85
2022-09-28T08:25:52.646Z,71.85
2022-09-28T08:28:20.222Z,72.37
2022-09-28T08:30:49.108Z,72.54
2022-09-28T08:33:42.203Z,72.50
2022-09-28T08:36:28.467Z,72.74
2022-09-28T08:39:01.307Z,72.86
2022-09-28T08:41:37.002Z,72.73
2022-09-28T08:44:26.896Z,73.22
2022-09-28T08:47:59.534Z,72.50
2022-09-28T08:50:49.489Z,71.71
2022-09-28T08:53:27.398Z,70.97
2022-09-28T08:56:37.992Z,64.98
2022-09-28T08:59:12.716Z,61.74
2022-09-28T09:02:03.566Z,60.72
2022-09-28T09:04:33.689Z,59.39
2022-09-28T09:07:58.358Z,58.68
2022-09-28T09:10:42.688Z,57.52
2022-09-28T09:13:37.251Z,57.15
2022-09-28T09:16:19.890Z,57.02
2022-09-28T09:19:20.413Z,57.03
2022-09-28T09:22:17.949Z,57.06
2022-09-28T09:24:54.809Z,58.29
2022-09-28T09:27:37.661Z,59.60
2022-09-28T09:30:18.836Z,60.81
2022-09-28T09:32:53.473Z,61.83
2022-09-28T09:35:38.854Z,63.24
2022-09-28T09:38:55.967Z,63.07
2022-09-28T09:41:57.446Z,61.68
2022-09-28T09:45:17.133Z,60.89
2022-09-28T09:48:14.432Z,58.30
2022-09-28T09:51:23.821Z,52.47
2022-09-28T09:54:04.566Z,48.97
2022-09-28T09:56:37.199Z,49.42
2022-09-28T09:59:24.508Z,47.48
2022-09-28T10:02:28.608Z,49.60
2022-09-28T10:05:24.216Z,50.53
2022-09-28T10:08:03.204Z,50.99
2022-09-28T10:10:35.430Z,51.96
2022-09-28T10:13:21.071Z,52.78
2022-09-28T10:15:50.530Z,53.46
2022-09-28T10:18:28.848Z,52.74
2022-09-28T10:21:15.824Z,53.32
2022-09-28T10:23:55.250Z,53.50
2022-09-28T10:26:37.487Z,54.48
2022-09-28T10:29:14.743Z,53.93
2022-09-28T10:31:51.543Z,56.11
2022-09-28T10:34:38.519Z,58.38
2022-09-28T10:37:15.350Z,60.83
2022-09-28T10:40:05.808Z,61.94
2022-09-28T10:42:36.243Z,62.83
2022-09-28T10:45:18.832Z,61.89
2022-09-28T10:47:46.423Z,61.42
2022-09-28T10:50:24.596Z,60.60
2022-09-28T10:53:19.938Z,60.27
2022-09-28T10:56:20.192Z,59.88
2022-09-28T10:58:48.980Z,58.14
2022-09-28T11:01:31.076Z,57.81
2022-09-28T11:04:01.218Z,58.16
2022-09-28T11:06:36.194Z,57.66
2022-09-28T11:09:21.074Z,58.25
2022-09-28T11:11:48.204Z,59.67
2022-09-28T11:14:43.624Z,59.28
2022-09-28T11:17:17.281Z,59.81
2022-09-28T11:19:45.883Z,59.42
2022-09-28T11:22:29.191Z,60.23
2022-09-28T11:25:33.265Z,61.14
2022-09-28T11:28:04.617Z,61.70
2022-09-28T11:30:54.277Z,62.52
2022-09-28T11:33:36.749Z,62.61
2022-09-28T11:36:45.375Z,63.29
2022-09-28T11:39:37.350Z,64.63
2022-09-28T11:42:16.732Z,66.02
2022-09-28T11:44:47.082Z,66.32
2022-09-28T11:47:21.036Z,67.42
2022-09-28T11:49:57.503Z,67.56
2022-09-28T11:52:27.709Z,67.50
2022-09-28T11:55:02.425Z,67.72
2022-09-28T11:57:36.590Z,66.94
2022-09-28T12:00:20.822Z,68.24
2022-09-28T12:03:07.246Z,73.09
2022-09-28T12:05:40.491Z,76.38
2022-09-28T12:08:28.991Z,80.83
2022-09-28T12:11:11.107Z,84.44
2022-09-28T12:14:00.900Z,86.73
2022-09-28T12:17:05.890Z,89.38
2022-09-28T12:19:44.338Z,91.21
2022-09-28T12:22:21.055Z,91.85
2022-09-28T12:24:52.749Z,92.08
2022-09-28T12:27:28.436Z,92.45
2022-09-28T12:29:55.253Z,91.77
2022-09-28T12:32:28.669Z,92.61
2022-09-28T12:34:56.827Z,93.23
2022-09-28T12:37:40.338Z,94.03
2022-09-28T12:40:22.630Z,94.73
2022-09-28T12:43:17.698Z,94.76
2022-09-28T12:46:11.418Z,96.79
2022-09-28T12:48:58.416Z,97.17
2022-09-28T12:51:54.548Z,97.18
2022-09-28T12:54:42.993Z,97.86
2022-09-28T12:57:34.689Z,98.23
2022-09-28T13:00:26.092Z,97.98
2022-09-28T13:03:31.714Z,97.57
2022-09-28T13:06:07.770Z,98.23
2022-09-28T13:08:55.267Z,97.39
2022-09-28T13:11:22.092Z,98.50
2022-09-28T13:14:13.505Z,98.46
2022-09-28T13:17:03.180Z,98.63
2022-09-28T13:19:36.279Z,98.81
2022-09-28T13:22:24.561Z,99.33
2022-09-28T13:24:55.391Z,99.00
2022-09-28T13:27:46.208Z,98.34
2022-09-28T13:30:15.034Z,97.77
2022-09-28T13:32:44.180Z,96.67
2022-09-28T13:35:21.734Z,96.48
2022-09-28T13:38:17.687Z,96.68
2022-09-28T13:41:06.338Z,95.82
2022-09-28T13:44:00.742Z,95.31
2022-09-28T13:46:40.436Z,95.42
2022-09-28T13:49:49.350Z,95.28
2022-09-28T13:52:54.881Z,95.98
2022-09-28T13:55:24.992Z,95.79
2022-09-28T13:58:00.794Z,96.28
2022-09-28T14:00:47.072Z,95.99
2022-09-28T14:03:27.192Z,95.68
2022-09-28T14:06:00.787Z,95.39
2022-09-28T14:08:58.272Z,95.80
2022-09-28T14:11:42.594Z,96.70
2022-09-28T14:14:13.810Z,97.88
2022-09-28T14:16:44.378Z,98.53
2022-09-28T14:19:14.234Z,98.44
2022-09-28T14:21:56.104Z,98.58
2022-09-28T14:24:45.156Z,98.92
2022-09-28T14:27:23.990Z,99.10
2022-09-28T14:30:05.301Z,99.16
2022-09-28T14:32:37.077Z,98.82
2022-09-28T14:35:07.494Z,98.12
2022-09-28T14:37:56.435Z,98.12
2022-09-28T14:40:49.745Z,97.73
2022-09-28T14:43:35.038Z,97.40
2022-09-28T14:46:11.354Z,97.56
2022-09-28T14:48:57.219Z,97.79
2022-09-28T14:51:26.774Z,97.58
2022-09-28T14:53:56.543Z,97.94
2022-09-28T14:56:25.466Z,97.78
2022-09-28T14:58:58.153Z,98.47
2022-09-28T15:01:26.120Z,98.77
2022-09-28T15:03:56.135Z,97.96
2022-09-28T15:06:24.259Z,96.95
2022-09-28T15:08:51.294Z,96.71
2022-09-28T15:11:27.441Z,96.54
2022-09-28T15:14:06.423Z,97.32
2022-09-28T15:16:33.796Z,96.79
2022-09-28T15:19:10.467Z,97.01
2022-09-28T15:21:40.542Z,96.94
2022-09-28T15:24:28.880Z,97.68
2022-09-28T15:26:56.895Z,97.99
2022-09-28T15:29:25.843Z,98.59
2022-09-28T15:31:54.662Z,99.87
2022-09-28T15:34:46.137Z,100.00
2022-09-28T15:37:16.714Z,100.00
2022-09-28T15:39:44.565Z,100.00
2022-09-28T15:42:11.506Z,100.00
2022-09-28T15:44:39.655Z,100.00
2022-09-28T15:47:16.779Z,100.00
2022-09-28T15:49:53.259Z,100.00
2022-09-28T15:52:26.251Z,100.00
2022-09-28T15:54:54.193Z,100.00
2022-09-28T15:57:29.947Z,100.00
2022-09-28T15:59:59.353Z,100.00
2022-09-28T16:02:27.284Z,100.00
2022-09-28T16:05:00.803Z,100.00
2022-09-28T16:07:56.786Z,100.00
2022-09-28T16:10:35.119Z,100.00
2022-09-28T16:13:23.269Z,95.86
2022-09-28T16:16:00.307Z,93.51
2022-09-28T16:18:29.822Z,92.00
2022-09-28T16:21:24.656Z,90.47
2022-09-28T16:23:55.702Z,90.66
2022-09-28T16:26:33.078Z,90.21
2022-09-28T16:29:00.754Z,89.40
2022-09-28T16:31:33.815Z,88.75
2022-09-28T16:34:09.579Z,89.18
2022-09-28T16:36:46.194Z,89.64
2022-09-28T16:39:16.978Z,91.16
2022-09-28T16:41:48.352Z,92.04
2022-09-28T16:44:21.305Z,92.75
2022-09-28T16:46:48.205Z,92.96
2022-09-28T16:49:20.146Z,94.00
2022-09-28T16:51:47.887Z,94.92
2022-09-28T16:54:37.103Z,95.73
2022-09-28T16:57:06.106Z,96.92
2022-09-28T16:59:32.971Z,97.78
2022-09-28T17:01:59.845Z,97.73
2022-09-28T17:04:27.155Z,98.02
2022-09-28T17:06:55.640Z,98.50
2022-09-28T17:09:23.368Z,97.98
2022-09-28T17:11:56.739Z,98.39
2022-09-28T17:14:24.300Z,98.68
2022-09-28T17:17:13.756Z,98.45
2022-09-28T17:19:40.919Z,98.22
2022-09-28T17:22:09.267Z,98.11
2022-09-28T17:24:36.574Z,97.96
2022-09-28T17:27:03.883Z,97.52
2022-09-28T17:29:30.650Z,98.00
2022-09-28T17:31:57.447Z,98.17
2022-09-28T17:34:24.322Z,97.92
2022-09-28T17:36:51.995Z,98.27
2022-09-28T17:39:19.356Z,98.77
2022-09-28T17:41:46.262Z,98.70
2022-09-28T17:44:16.254Z,99.02
2022-09-28T17:46:46.364Z,99.39
2022-09-28T17:49:14.006Z,99.37
2022-09-28T17:51:40.887Z,99.02
2022-09-28T17:54:08.894Z,98.70
2022-09-28T17:56:36.794Z,99.03
2022-09-28T17:59:10.367Z,98.77
2022-09-28T18:01:39.371Z,98.37
2022-09-28T18:04:08.982Z,98.88
2022-09-28T18:06:37.401Z,98.67
2022-09-28T18:09:05.835Z,98.18
2022-09-28T18:11:33.862Z,98.63
2022-09-28T18:14:00.881Z,98.14
2022-09-28T18:16:28.937Z,97.53
2022-09-28T18:18:56.790Z,97.74
2022-09-28T18:21:23.887Z,97.70
2022-09-28T18:23:50.651Z,97.90
2022-09-28T18:26:19.867Z,97.66
2022-09-28T18:28:47.303Z,97.51
2022-09-28T18:31:15.894Z,97.85
2022-09-28T18:33:50.371Z,97.77
2022-09-28T18:36:17.346Z,97.54
2022-09-28T18:38:44.262Z,97.55
2022-09-28T18:41:15.740Z,98.02
2022-09-28T18:43:51.349Z,97.90
2022-09-28T18:46:18.504Z,98.22
2022-09-28T18:48:47.505Z,98.66
2022-09-28T18:51:14.561Z,98.84
2022-09-28T18:53:41.354Z,99.03
2022-09-28T18:56:11.017Z,99.03
2022-09-28T18:58:39.240Z,98.98
2022-09-28T19:04:00.572Z,98.46
2022-09-28T19:06:27.817Z,98.02
2022-09-28T19:08:57.830Z,97.55
2022-09-28T19:11:25.600Z,97.07
2022-09-28T19:13:54.448Z,95.56
2022-09-28T19:16:24.211Z,95.21
2022-09-28T19:18:53.711Z,94.68
2022-09-28T19:21:21.087Z,94.76
2022-09-28T19:23:53.652Z,95.84
2022-09-28T19:26:23.129Z,95.89
2022-09-28T19:28:50.524Z,95.48
2022-09-28T19:31:17.484Z,94.60
2022-09-28T19:33:48.165Z,94.46
2022-09-28T19:36:18.522Z,94.28
2022-09-28T19:38:45.959Z,94.65
2022-09-28T19:41:39.299Z,95.55
2022-09-28T19:44:10.447Z,96.50
2022-09-28T19:46:39.038Z,96.70
2022-09-28T19:49:11.419Z,96.10
2022-09-28T19:51:51.446Z,95.87
2022-09-28T19:54:33.124Z,96.13
2022-09-28T19:57:07.831Z,96.72
2022-09-28T19:59:36.722Z,96.67
2022-09-28T20:02:05.614Z,97.23
2022-09-28T20:04:32.377Z,97.50
2022-09-28T20:06:59.097Z,97.68
2022-09-28T20:09:25.892Z,97.93
2022-09-28T20:11:53.161Z,97.78
2022-09-28T20:14:21.445Z,98.11
2022-09-28T20:16:50.231Z,97.85
2022-09-28T20:19:19.111Z,97.01
2022-09-28T20:21:48.120Z,96.40
2022-09-28T20:24:16.779Z,95.83
2022-09-28T20:26:44.674Z,95.71
2022-09-28T20:29:11.898Z,95.63
2022-09-28T20:31:38.743Z,95.92
2022-09-28T20:34:06.513Z,95.89
2022-09-28T20:36:33.626Z,96.01
2022-09-28T20:39:04.089Z,95.71
2022-09-28T20:41:36.661Z,95.95
2022-09-28T20:44:05.930Z,96.15
2022-09-28T20:46:34.801Z,96.14
2022-09-28T20:49:02.207Z,96.96
2022-09-28T20:51:28.974Z,96.64
2022-09-28T20:53:57.201Z,96.23
2022-09-28T20:56:37.549Z,96.04
2022-09-28T20:59:07.626Z,96.61
2022-09-28T21:01:35.340Z,96.65
2022-09-28T21:04:04.664Z,97.13
2022-09-28T21:06:34.215Z,97.26
2022-09-28T21:09:01.309Z,96.83
2022-09-28T21:11:29.603Z,96.34
2022-09-28T21:13:59.368Z,96.36
2022-09-28T21:16:28.258Z,96.34
2022-09-28T21:18:55.050Z,97.11
2022-09-28T21:21:23.096Z,97.80
2022-09-28T21:23:54.055Z,98.19
2022-09-28T21:26:26.578Z,98.21
2022-09-28T21:28:58.150Z,97.78
2022-09-28T21:31:29.435Z,97.24
2022-09-28T21:33:57.376Z,96.39
2022-09-28T21:36:25.151Z,97.22
2022-09-28T21:38:52.138Z,97.69
2022-09-28T21:41:18.812Z,97.60
2022-09-28T21:43:45.797Z,97.49
2022-09-28T21:46:12.870Z,97.79
2022-09-28T21:48:39.779Z,97.70
2022-09-28T21:51:09.224Z,97.80
2022-09-28T21:53:37.876Z,97.95
2022-09-28T21:56:07.142Z,97.93
2022-09-28T21:58:35.692Z,98.42
2022-09-28T22:01:34.860Z,98.21
2022-09-28T22:04:01.676Z,98.97
2022-09-28T22:06:28.437Z,98.49
2022-09-28T22:08:55.699Z,98.44
2022-09-28T22:11:25.565Z,97.81
2022-09-28T22:13:57.551Z,98.04
2022-09-28T22:16:27.648Z,97.77
2022-09-28T22:18:54.707Z,97.60
2022-09-28T22:21:26.724Z,97.19
2022-09-28T22:23:53.917Z,97.16
2022-09-28T22:26:23.543Z,96.45
2022-09-28T22:29:08.174Z,96.39
2022-09-28T22:31:37.858Z,96.37
2022-09-28T22:34:05.322Z,95.68
2022-09-28T22:36:32.459Z,95.99
2022-09-28T22:38:59.827Z,96.58
2022-09-28T22:41:27.186Z,96.57
2022-09-28T22:43:55.139Z,97.54
2022-09-28T22:46:25.136Z,97.37
2022-09-28T22:48:57.493Z,97.00
2022-09-28T22:51:26.600Z,97.00
2022-09-28T22:53:53.411Z,96.45
2022-09-28T22:56:20.353Z,96.80
2022-09-28T22:58:47.201Z,97.13
2022-09-28T23:01:15.415Z,97.50
2022-09-28T23:03:42.639Z,97.53
2022-09-28T23:06:10.898Z,98.13
2022-09-28T23:08:38.354Z,98.03
2022-09-28T23:11:06.196Z,97.61
2022-09-28T23:13:33.262Z,97.32
2022-09-28T23:16:05.675Z,97.58
2022-09-28T23:18:35.957Z,97.67
2022-09-28T23:21:05.769Z,97.33
2022-09-28T23:23:33.335Z,97.41
2022-09-28T23:26:09.489Z,96.99
2022-09-28T23:28:36.218Z,97.57
2022-09-28T23:31:11.229Z,96.71
2022-09-28T23:33:38.080Z,96.16
2022-09-28T23:36:05.076Z,95.18
2022-09-28T23:38:31.825Z,95.62
2022-09-28T23:40:58.591Z,95.52
2022-09-28T23:43:25.412Z,95.48
2022-09-28T23:45:52.099Z,95.46
2022-09-28T23:48:18.835Z,95.36
2022-09-28T23:50:45.774Z,96.20
2022-09-28T23:53:14.290Z,96.34
2022-09-28T23:55:42.975Z,96.66
2022-09-28T23:58:10.649Z,97.06
